AAL1617 MYNN-KDCA
Flight info
| Callsign | AAL1617 |
|---|---|
| Flight time | N/A |
| Altitude | 36000 |
| Route | INGRA G437 ELBOW DCT GRUBR Y299 SEELO DCT GARIC DCT RANAY DCT TANJA DCT WAVES CAPSS4 |
| Aircraft | A21N/M-SDE2E3FGHIRWXY/LB1 |
Departure
| Time | 2026-05-04 21:12 |
|---|---|
| Airport | Lynden Pindling International Airport (MYNN) |
Arrival
| Time | N/A |
|---|---|
| Airport | Ronald Reagan Washington National Airport (KDCA) |
| Time | Latitude | Longitude | Altitude | Speed | Heading |
|---|---|---|---|---|---|
| 2026-05-04 21:00 | 25.04807 | -77.46714 | 22 ft | 0 kts | 34° |
| 2026-05-04 21:03 | 25.04813 | -77.46706 | 24 ft | 3 kts | 55° |
| 2026-05-04 21:03 | 25.04819 | -77.46686 | 22 ft | 3 kts | 80° |
| 2026-05-04 21:03 | 25.04819 | -77.46664 | 22 ft | 3 kts | 94° |
| 2026-05-04 21:03 | 25.04814 | -77.46644 | 22 ft | 3 kts | 117° |
| 2026-05-04 21:04 | 25.04804 | -77.46643 | 23 ft | 3 kts | 184° |
| 2026-05-04 21:04 | 25.04791 | -77.46652 | 22 ft | 2 kts | 221° |
| 2026-05-04 21:04 | 25.04788 | -77.46655 | 22 ft | 0 kts | 223° |
| 2026-05-04 21:07 | 25.04787 | -77.46657 | 22 ft | 1 kts | 223° |
| 2026-05-04 21:07 | 25.04776 | -77.46668 | 17 ft | 3 kts | 223° |
| 2026-05-04 21:08 | 25.04756 | -77.46688 | 22 ft | 5 kts | 223° |
| 2026-05-04 21:08 | 25.04729 | -77.46717 | 23 ft | 6 kts | 223° |
| 2026-05-04 21:08 | 25.04699 | -77.46760 | 23 ft | 8 kts | 265° |
| 2026-05-04 21:08 | 25.04737 | -77.46814 | 23 ft | 10 kts | 315° |
| 2026-05-04 21:09 | 25.04790 | -77.46871 | 23 ft | 12 kts | 315° |
| 2026-05-04 21:09 | 25.04850 | -77.46939 | 23 ft | 13 kts | 314° |
| 2026-05-04 21:09 | 25.04917 | -77.47015 | 23 ft | 14 kts | 314° |
| 2026-05-04 21:09 | 25.04990 | -77.47098 | 24 ft | 16 kts | 314° |
| 2026-05-04 21:10 | 25.05070 | -77.47188 | 23 ft | 17 kts | 315° |
| 2026-05-04 21:10 | 25.05156 | -77.47284 | 25 ft | 18 kts | 314° |
| 2026-05-04 21:10 | 25.05221 | -77.47380 | 23 ft | 15 kts | 276° |
| 2026-05-04 21:10 | 25.05199 | -77.47487 | 26 ft | 14 kts | 247° |
| 2026-05-04 21:11 | 25.05151 | -77.47526 | 30 ft | 5 kts | 149° |
| 2026-05-04 21:11 | 25.05113 | -77.47491 | 25 ft | 13 kts | 135° |
| 2026-05-04 21:11 | 25.04867 | -77.47220 | 25 ft | 86 kts | 135° |
| 2026-05-04 21:11 | 25.04302 | -77.46592 | 26 ft | 146 kts | 135° |
| 2026-05-04 21:12 | 25.03513 | -77.45714 | 331 ft | 164 kts | 133° |
| 2026-05-04 21:12 | 25.02681 | -77.44784 | 836 ft | 181 kts | 135° |
| 2026-05-04 21:12 | 25.01653 | -77.43698 | 1098 ft | 229 kts | 137° |
| 2026-05-04 21:12 | 25.00413 | -77.42378 | 1652 ft | 260 kts | 136° |
| 2026-05-04 21:13 | 24.99331 | -77.40753 | 2587 ft | 268 kts | 112° |
| 2026-05-04 21:13 | 24.99086 | -77.38718 | 3436 ft | 273 kts | 81° |
| 2026-05-04 21:13 | 24.99777 | -77.36780 | 4216 ft | 276 kts | 51° |
| 2026-05-04 21:13 | 25.01236 | -77.35444 | 5000 ft | 275 kts | 21° |
| 2026-05-04 21:14 | 25.03063 | -77.34823 | 5773 ft | 277 kts | 10° |
| 2026-05-04 21:14 | 25.04961 | -77.34356 | 6551 ft | 282 kts | 9° |
| 2026-05-04 21:14 | 25.06888 | -77.33857 | 7310 ft | 286 kts | 11° |
| 2026-05-04 21:14 | 25.08828 | -77.33325 | 8118 ft | 289 kts | 11° |
| 2026-05-04 21:15 | 25.10790 | -77.32774 | 8956 ft | 292 kts | 11° |
| 2026-05-04 21:15 | 25.12766 | -77.32211 | 9788 ft | 295 kts | 11° |
| 2026-05-04 21:15 | 25.14779 | -77.31628 | 10368 ft | 308 kts | 11° |
| 2026-05-04 21:15 | 25.16918 | -77.31000 | 10696 ft | 329 kts | 11° |
| 2026-05-04 21:16 | 25.19198 | -77.30328 | 10984 ft | 350 kts | 11° |
| 2026-05-04 21:16 | 25.21614 | -77.29619 | 11253 ft | 369 kts | 11° |
| 2026-05-04 21:16 | 25.24157 | -77.28870 | 11509 ft | 387 kts | 11° |
| 2026-05-04 21:16 | 25.26822 | -77.28084 | 11747 ft | 404 kts | 11° |
| 2026-05-04 21:17 | 25.29578 | -77.27269 | 12061 ft | 415 kts | 11° |
| 2026-05-04 21:17 | 25.32347 | -77.26450 | 12547 ft | 419 kts | 11° |
| 2026-05-04 21:17 | 25.35212 | -77.25603 | 13089 ft | 423 kts | 10° |
| 2026-05-04 21:17 | 25.38071 | -77.24757 | 13643 ft | 427 kts | 10° |
| 2026-05-04 21:18 | 25.40913 | -77.23917 | 14083 ft | 431 kts | 10° |
| 2026-05-04 21:18 | 25.43854 | -77.23047 | 14471 ft | 436 kts | 10° |
| 2026-05-04 21:18 | 25.46784 | -77.22092 | 14914 ft | 442 kts | 14° |
| 2026-05-04 21:18 | 25.49607 | -77.20786 | 15390 ft | 448 kts | 20° |
| 2026-05-04 21:19 | 25.52434 | -77.19307 | 15862 ft | 452 kts | 21° |
| 2026-05-04 21:19 | 25.55323 | -77.17785 | 16264 ft | 454 kts | 20° |
| 2026-05-04 21:19 | 25.58191 | -77.16291 | 16662 ft | 457 kts | 20° |
| 2026-05-04 21:19 | 25.61044 | -77.14820 | 17044 ft | 460 kts | 20° |
| 2026-05-04 21:20 | 25.63949 | -77.13329 | 17425 ft | 463 kts | 20° |
| 2026-05-04 21:20 | 25.66883 | -77.11826 | 17807 ft | 465 kts | 20° |
| 2026-05-04 21:20 | 25.69827 | -77.10316 | 18199 ft | 468 kts | 20° |
| 2026-05-04 21:20 | 25.72792 | -77.08794 | 18545 ft | 471 kts | 20° |
| 2026-05-04 21:21 | 25.75771 | -77.07260 | 18891 ft | 473 kts | 20° |
| 2026-05-04 21:21 | 25.78767 | -77.05717 | 19232 ft | 476 kts | 20° |
| 2026-05-04 21:21 | 25.81779 | -77.04167 | 19585 ft | 479 kts | 20° |
| 2026-05-04 21:21 | 25.84817 | -77.02605 | 19959 ft | 482 kts | 20° |
| 2026-05-04 21:22 | 25.87867 | -77.01034 | 20327 ft | 485 kts | 20° |
| 2026-05-04 21:22 | 25.90936 | -76.99450 | 20700 ft | 488 kts | 20° |
| 2026-05-04 21:22 | 25.94026 | -76.97855 | 21105 ft | 492 kts | 20° |
| 2026-05-04 21:22 | 25.97142 | -76.96245 | 21560 ft | 496 kts | 20° |
| 2026-05-04 21:23 | 26.00283 | -76.94624 | 21986 ft | 500 kts | 20° |
| 2026-05-04 21:23 | 26.03443 | -76.92989 | 22385 ft | 504 kts | 20° |
| 2026-05-04 21:23 | 26.06634 | -76.91332 | 22789 ft | 507 kts | 20° |
| 2026-05-04 21:23 | 26.09844 | -76.89671 | 23148 ft | 511 kts | 20° |
| 2026-05-04 21:24 | 26.13076 | -76.87993 | 23506 ft | 514 kts | 20° |
| 2026-05-04 21:24 | 26.16321 | -76.86312 | 23843 ft | 516 kts | 21° |
| 2026-05-04 21:24 | 26.19568 | -76.84608 | 24250 ft | 514 kts | 21° |
| 2026-05-04 21:24 | 26.22802 | -76.82928 | 24686 ft | 513 kts | 20° |
| 2026-05-04 21:25 | 26.26026 | -76.81262 | 25152 ft | 511 kts | 20° |
| 2026-05-04 21:25 | 26.29252 | -76.79589 | 25601 ft | 509 kts | 20° |
| 2026-05-04 21:25 | 26.32458 | -76.77929 | 26084 ft | 507 kts | 20° |
| 2026-05-04 21:25 | 26.35654 | -76.76269 | 26556 ft | 506 kts | 19° |
| 2026-05-04 21:26 | 26.38897 | -76.74849 | 27011 ft | 496 kts | 9° |
| 2026-05-04 21:26 | 26.42244 | -76.74223 | 27459 ft | 482 kts | 356° |
| 2026-05-04 21:26 | 26.45539 | -76.74447 | 27904 ft | 468 kts | 343° |
| 2026-05-04 21:26 | 26.48618 | -76.75422 | 28370 ft | 455 kts | 332° |
| 2026-05-04 21:27 | 26.51517 | -76.76796 | 28865 ft | 451 kts | 329° |
| 2026-05-04 21:27 | 26.54376 | -76.78207 | 29337 ft | 449 kts | 329° |
| 2026-05-04 21:27 | 26.57193 | -76.79585 | 29884 ft | 446 kts | 329° |
| 2026-05-04 21:27 | 26.60029 | -76.80952 | 30360 ft | 443 kts | 329° |
| 2026-05-04 21:28 | 26.62858 | -76.82305 | 30699 ft | 443 kts | 330° |
| 2026-05-04 21:28 | 26.65695 | -76.83651 | 31001 ft | 443 kts | 329° |
| 2026-05-04 21:28 | 26.68530 | -76.85008 | 31304 ft | 443 kts | 329° |
| 2026-05-04 21:28 | 26.71363 | -76.86363 | 31611 ft | 443 kts | 329° |
| 2026-05-04 21:29 | 26.74201 | -76.87717 | 31930 ft | 443 kts | 329° |
| 2026-05-04 21:29 | 26.77041 | -76.89064 | 32239 ft | 443 kts | 329° |
| 2026-05-04 21:29 | 26.78960 | -76.89977 | 32437 ft | 443 kts | 329° |
| 2026-05-04 21:29 | 26.82717 | -76.91768 | 32821 ft | 443 kts | 329° |
| 2026-05-04 21:30 | 26.84634 | -76.92681 | 33004 ft | 443 kts | 329° |
| 2026-05-04 21:30 | 26.87475 | -76.94033 | 33321 ft | 443 kts | 329° |
| 2026-05-04 21:30 | 26.90311 | -76.95383 | 33625 ft | 442 kts | 329° |
| 2026-05-04 21:30 | 26.94056 | -76.97175 | 33968 ft | 442 kts | 329° |
| 2026-05-04 21:31 | 26.98796 | -76.99445 | 34327 ft | 442 kts | 329° |
| 2026-05-04 21:31 | 27.01623 | -77.00798 | 34551 ft | 442 kts | 329° |
| 2026-05-04 21:31 | 27.04446 | -77.02152 | 34753 ft | 441 kts | 328° |
| 2026-05-04 21:32 | 27.07270 | -77.03508 | 34950 ft | 441 kts | 328° |
| 2026-05-04 21:32 | 27.10051 | -77.04843 | 35137 ft | 441 kts | 328° |
| 2026-05-04 21:32 | 27.12870 | -77.06200 | 35327 ft | 441 kts | 328° |
| 2026-05-04 21:32 | 27.15685 | -77.07560 | 35505 ft | 441 kts | 328° |
| 2026-05-04 21:33 | 27.18500 | -77.08915 | 35686 ft | 440 kts | 328° |
| 2026-05-04 21:33 | 27.21316 | -77.10269 | 35850 ft | 440 kts | 328° |
| 2026-05-04 21:33 | 27.24136 | -77.11624 | 36010 ft | 440 kts | 328° |
| 2026-05-04 21:34 | 27.29766 | -77.14332 | 36048 ft | 439 kts | 328° |
| 2026-05-04 21:34 | 27.35380 | -77.17041 | 36032 ft | 439 kts | 328° |
| 2026-05-04 21:35 | 27.40996 | -77.19755 | 36026 ft | 439 kts | 328° |
| 2026-05-04 21:35 | 27.46612 | -77.22470 | 36026 ft | 439 kts | 328° |
| 2026-05-04 21:36 | 27.52212 | -77.25177 | 36040 ft | 437 kts | 327° |
| 2026-05-04 21:36 | 27.57802 | -77.27886 | 36033 ft | 437 kts | 327° |
| 2026-05-04 21:37 | 27.63383 | -77.30598 | 36033 ft | 437 kts | 327° |
| 2026-05-04 21:37 | 27.68972 | -77.33308 | 36034 ft | 437 kts | 327° |
| 2026-05-04 21:38 | 27.74555 | -77.36021 | 36036 ft | 437 kts | 327° |
| 2026-05-04 21:38 | 27.80136 | -77.38738 | 36063 ft | 436 kts | 327° |
| 2026-05-04 21:39 | 27.85695 | -77.41445 | 36046 ft | 435 kts | 327° |
| 2026-05-04 21:39 | 27.91250 | -77.44157 | 36043 ft | 435 kts | 327° |
| 2026-05-04 21:40 | 27.96805 | -77.46874 | 36042 ft | 435 kts | 327° |
| 2026-05-04 21:40 | 28.02322 | -77.49567 | 36044 ft | 435 kts | 327° |
| 2026-05-04 21:41 | 28.07877 | -77.52286 | 36047 ft | 435 kts | 327° |
| 2026-05-04 21:41 | 28.13429 | -77.55006 | 36064 ft | 434 kts | 327° |
| 2026-05-04 21:42 | 28.18977 | -77.57729 | 36056 ft | 434 kts | 327° |
| 2026-05-04 21:42 | 28.24522 | -77.60452 | 36054 ft | 435 kts | 327° |
| 2026-05-04 21:43 | 28.30075 | -77.63184 | 36052 ft | 435 kts | 327° |
| 2026-05-04 21:43 | 28.35627 | -77.65914 | 36056 ft | 435 kts | 327° |
| 2026-05-04 21:44 | 28.41176 | -77.68650 | 36091 ft | 435 kts | 327° |
| 2026-05-04 21:44 | 28.46721 | -77.71385 | 36077 ft | 434 kts | 327° |
| 2026-05-04 21:45 | 28.52255 | -77.74123 | 36059 ft | 434 kts | 327° |
| 2026-05-04 21:45 | 28.57792 | -77.76866 | 36058 ft | 434 kts | 327° |
| 2026-05-04 21:46 | 28.63326 | -77.79612 | 36058 ft | 434 kts | 327° |
| 2026-05-04 21:46 | 28.68867 | -77.82347 | 36061 ft | 434 kts | 327° |
| 2026-05-04 21:47 | 28.74404 | -77.85090 | 36079 ft | 434 kts | 327° |
| 2026-05-04 21:47 | 28.79938 | -77.87839 | 36070 ft | 434 kts | 327° |
| 2026-05-04 21:48 | 28.85432 | -77.90572 | 36072 ft | 434 kts | 327° |
| 2026-05-04 21:48 | 28.90963 | -77.93325 | 36072 ft | 434 kts | 327° |
| 2026-05-04 21:49 | 28.96490 | -77.96082 | 36086 ft | 434 kts | 327° |
| 2026-05-04 21:49 | 29.02026 | -77.98848 | 36109 ft | 434 kts | 327° |
| 2026-05-04 21:50 | 29.07559 | -78.01616 | 36084 ft | 434 kts | 327° |
| 2026-05-04 21:50 | 29.13089 | -78.04379 | 36079 ft | 434 kts | 327° |
| 2026-05-04 21:51 | 29.18620 | -78.07150 | 36080 ft | 434 kts | 327° |
| 2026-05-04 21:51 | 29.24151 | -78.09923 | 36080 ft | 434 kts | 327° |
| 2026-05-04 21:52 | 29.29679 | -78.12698 | 36115 ft | 434 kts | 327° |
| 2026-05-04 21:52 | 29.35210 | -78.15478 | 36079 ft | 434 kts | 327° |
| 2026-05-04 21:53 | 29.40737 | -78.18260 | 36083 ft | 434 kts | 327° |
| 2026-05-04 21:53 | 29.46265 | -78.21045 | 36086 ft | 434 kts | 327° |
| 2026-05-04 21:54 | 29.51798 | -78.23837 | 36089 ft | 435 kts | 327° |
| 2026-05-04 21:54 | 29.57335 | -78.26633 | 36088 ft | 435 kts | 327° |
| 2026-05-04 21:55 | 29.62866 | -78.29430 | 36109 ft | 434 kts | 327° |
| 2026-05-04 21:55 | 29.68389 | -78.32225 | 36092 ft | 434 kts | 327° |
| 2026-05-04 21:56 | 29.73910 | -78.35025 | 36092 ft | 434 kts | 327° |
| 2026-05-04 21:56 | 29.79432 | -78.37830 | 36096 ft | 434 kts | 327° |
| 2026-05-04 21:57 | 29.84952 | -78.40633 | 36094 ft | 434 kts | 327° |
| 2026-05-04 21:57 | 29.90469 | -78.43438 | 36127 ft | 433 kts | 327° |
| 2026-05-04 21:58 | 29.95971 | -78.46238 | 36102 ft | 432 kts | 327° |
| 2026-05-04 21:58 | 30.01434 | -78.49026 | 36099 ft | 432 kts | 327° |
| 2026-05-04 21:59 | 30.06930 | -78.51836 | 36099 ft | 432 kts | 327° |
| 2026-05-04 21:59 | 30.12464 | -78.54575 | 36097 ft | 438 kts | 332° |
| 2026-05-04 21:59 | 30.15468 | -78.55413 | 36097 ft | 453 kts | 343° |
| 2026-05-04 22:00 | 30.18666 | -78.55494 | 36098 ft | 469 kts | 356° |
| 2026-05-04 22:00 | 30.25186 | -78.54540 | 36103 ft | 472 kts | 359° |
| 2026-05-04 22:01 | 30.31698 | -78.53553 | 36102 ft | 471 kts | 358° |
| 2026-05-04 22:01 | 30.38205 | -78.52618 | 36101 ft | 471 kts | 358° |
| 2026-05-04 22:02 | 30.44710 | -78.51667 | 36111 ft | 472 kts | 359° |
| 2026-05-04 22:02 | 30.51220 | -78.50601 | 36109 ft | 472 kts | 359° |
| 2026-05-04 22:03 | 30.57724 | -78.49542 | 36105 ft | 472 kts | 359° |
| 2026-05-04 22:03 | 30.64229 | -78.48473 | 36104 ft | 472 kts | 359° |
| 2026-05-04 22:04 | 30.70737 | -78.47413 | 36107 ft | 472 kts | 359° |
| 2026-05-04 22:04 | 30.77239 | -78.46354 | 36133 ft | 472 kts | 359° |
| 2026-05-04 22:05 | 30.83707 | -78.45303 | 36116 ft | 473 kts | 359° |
| 2026-05-04 22:05 | 30.90224 | -78.44239 | 36112 ft | 473 kts | 359° |
| 2026-05-04 22:06 | 30.96740 | -78.43172 | 36108 ft | 473 kts | 359° |
| 2026-05-04 22:06 | 31.03256 | -78.42114 | 36138 ft | 473 kts | 358° |
| 2026-05-04 22:07 | 31.09777 | -78.41042 | 36116 ft | 473 kts | 359° |
| 2026-05-04 22:07 | 31.16293 | -78.39972 | 36112 ft | 473 kts | 358° |
| 2026-05-04 22:08 | 31.22815 | -78.38902 | 36115 ft | 473 kts | 359° |
| 2026-05-04 22:08 | 31.29330 | -78.37830 | 36145 ft | 473 kts | 358° |
| 2026-05-04 22:09 | 31.35847 | -78.36757 | 36122 ft | 472 kts | 358° |
| 2026-05-04 22:09 | 31.42359 | -78.35688 | 36114 ft | 472 kts | 358° |
| 2026-05-04 22:10 | 31.48866 | -78.34609 | 36118 ft | 472 kts | 358° |
| 2026-05-04 22:10 | 31.55377 | -78.33531 | 36160 ft | 472 kts | 358° |
| 2026-05-04 22:11 | 31.61873 | -78.32460 | 36128 ft | 471 kts | 358° |
| 2026-05-04 22:11 | 31.68362 | -78.31384 | 36117 ft | 471 kts | 358° |
| 2026-05-04 22:12 | 31.74850 | -78.30310 | 36119 ft | 471 kts | 358° |
| 2026-05-04 22:12 | 31.81338 | -78.29229 | 36147 ft | 471 kts | 358° |
| 2026-05-04 22:13 | 31.87819 | -78.28152 | 36122 ft | 470 kts | 358° |
| 2026-05-04 22:13 | 31.94300 | -78.27067 | 36117 ft | 470 kts | 358° |
| 2026-05-04 22:14 | 32.00783 | -78.25985 | 36119 ft | 470 kts | 358° |
| 2026-05-04 22:14 | 32.07259 | -78.25002 | 36177 ft | 469 kts | 357° |
| 2026-05-04 22:15 | 32.13673 | -78.24067 | 36132 ft | 467 kts | 358° |
| 2026-05-04 22:15 | 32.20122 | -78.23131 | 36118 ft | 467 kts | 358° |
| 2026-05-04 22:16 | 32.26575 | -78.22187 | 36121 ft | 467 kts | 358° |
| 2026-05-04 22:16 | 32.33026 | -78.21244 | 36119 ft | 467 kts | 358° |
| 2026-05-04 22:17 | 32.39463 | -78.20301 | 36127 ft | 465 kts | 358° |
| 2026-05-04 22:17 | 32.45885 | -78.19353 | 36119 ft | 465 kts | 358° |
| 2026-05-04 22:18 | 32.52305 | -78.18409 | 36120 ft | 465 kts | 358° |
| 2026-05-04 22:18 | 32.58726 | -78.17462 | 36119 ft | 465 kts | 358° |
| 2026-05-04 22:19 | 32.64050 | -78.16676 | 36135 ft | 462 kts | 359° |
| 2026-05-04 22:19 | 32.70436 | -78.15742 | 36117 ft | 463 kts | 359° |
| 2026-05-04 22:20 | 32.76825 | -78.14795 | 36117 ft | 462 kts | 359° |
| 2026-05-04 22:20 | 32.83212 | -78.13850 | 36113 ft | 463 kts | 359° |
| 2026-05-04 22:21 | 32.89598 | -78.12897 | 36112 ft | 463 kts | 359° |
| 2026-05-04 22:21 | 32.95984 | -78.11949 | 36112 ft | 462 kts | 359° |
| 2026-05-04 22:22 | 33.02373 | -78.10999 | 36110 ft | 463 kts | 359° |
| 2026-05-04 22:22 | 33.08757 | -78.10045 | 36111 ft | 463 kts | 359° |
| 2026-05-04 22:23 | 33.15136 | -78.09094 | 36131 ft | 461 kts | 359° |
| 2026-05-04 22:23 | 33.21508 | -78.08145 | 36119 ft | 461 kts | 359° |
| 2026-05-04 22:24 | 33.27876 | -78.07192 | 36115 ft | 461 kts | 359° |
| 2026-05-04 22:24 | 33.34250 | -78.06241 | 36116 ft | 461 kts | 359° |
| 2026-05-04 22:25 | 33.40576 | -78.05288 | 36128 ft | 461 kts | 359° |
| 2026-05-04 22:25 | 33.46980 | -78.04324 | 36111 ft | 461 kts | 359° |
| 2026-05-04 22:26 | 33.53302 | -78.03373 | 36111 ft | 461 kts | 359° |
| 2026-05-04 22:26 | 33.59670 | -78.02415 | 36107 ft | 461 kts | 360° |
| 2026-05-04 22:27 | 33.66038 | -78.01452 | 36137 ft | 460 kts | 0° |
| 2026-05-04 22:27 | 33.72380 | -78.00497 | 36117 ft | 460 kts | 0° |
| 2026-05-04 22:28 | 33.78727 | -77.99536 | 36097 ft | 460 kts | 0° |
| 2026-05-04 22:28 | 33.85068 | -77.98572 | 36099 ft | 459 kts | 0° |
| 2026-05-04 22:29 | 33.91412 | -77.97766 | 36107 ft | 457 kts | 358° |
| 2026-05-04 22:29 | 33.97739 | -77.97081 | 36101 ft | 457 kts | 358° |
| 2026-05-04 22:30 | 34.04073 | -77.96391 | 36100 ft | 457 kts | 358° |
| 2026-05-04 22:30 | 34.10402 | -77.95700 | 36094 ft | 457 kts | 359° |
| 2026-05-04 22:31 | 34.16737 | -77.95005 | 36107 ft | 458 kts | 358° |
| 2026-05-04 22:31 | 34.23084 | -77.94307 | 36094 ft | 458 kts | 358° |
| 2026-05-04 22:32 | 34.29421 | -77.93610 | 36091 ft | 457 kts | 358° |
| 2026-05-04 22:32 | 34.35761 | -77.92910 | 36090 ft | 457 kts | 358° |
| 2026-05-04 22:33 | 34.42103 | -77.92212 | 36107 ft | 457 kts | 358° |
| 2026-05-04 22:33 | 34.48400 | -77.91524 | 36081 ft | 457 kts | 359° |
| 2026-05-04 22:34 | 34.54739 | -77.90825 | 36073 ft | 457 kts | 359° |
| 2026-05-04 22:34 | 34.61075 | -77.90121 | 36072 ft | 457 kts | 359° |
| 2026-05-04 22:35 | 34.67412 | -77.89419 | 36090 ft | 456 kts | 358° |
| 2026-05-04 22:35 | 34.73734 | -77.88718 | 36075 ft | 456 kts | 358° |
| 2026-05-04 22:36 | 34.80051 | -77.88020 | 36071 ft | 456 kts | 358° |
| 2026-05-04 22:36 | 34.86374 | -77.87309 | 36053 ft | 456 kts | 358° |
| 2026-05-04 22:37 | 34.92696 | -77.86615 | 36061 ft | 457 kts | 358° |
| 2026-05-04 22:37 | 34.99025 | -77.85897 | 36050 ft | 457 kts | 358° |
| 2026-05-04 22:38 | 35.05354 | -77.85191 | 36054 ft | 457 kts | 358° |
| 2026-05-04 22:38 | 35.11684 | -77.84482 | 36049 ft | 457 kts | 358° |
| 2026-05-04 22:39 | 35.18009 | -77.83772 | 36058 ft | 456 kts | 358° |
| 2026-05-04 22:39 | 35.24330 | -77.83067 | 36047 ft | 456 kts | 358° |
| 2026-05-04 22:40 | 35.30648 | -77.82352 | 36041 ft | 456 kts | 358° |
| 2026-05-04 22:40 | 35.36966 | -77.81632 | 36039 ft | 456 kts | 358° |
| 2026-05-04 22:41 | 35.43284 | -77.80903 | 36034 ft | 456 kts | 358° |
| 2026-05-04 22:41 | 35.49602 | -77.79887 | 36030 ft | 459 kts | 1° |
| 2026-05-04 22:42 | 35.55925 | -77.78754 | 36029 ft | 459 kts | 1° |
| 2026-05-04 22:42 | 35.62245 | -77.77650 | 36042 ft | 459 kts | 1° |
| 2026-05-04 22:43 | 35.68561 | -77.76573 | 36020 ft | 458 kts | 1° |
| 2026-05-04 22:43 | 35.74732 | -77.75492 | 35995 ft | 433 kts | 1° |
| 2026-05-04 22:44 | 35.80638 | -77.74458 | 35998 ft | 426 kts | 1° |
| 2026-05-04 22:44 | 35.86509 | -77.73428 | 36005 ft | 426 kts | 1° |
| 2026-05-04 22:45 | 35.92362 | -77.72397 | 36021 ft | 424 kts | 1° |
| 2026-05-04 22:45 | 36.01126 | -77.70868 | 36008 ft | 424 kts | 1° |
| 2026-05-04 22:46 | 36.06961 | -77.69837 | 36009 ft | 424 kts | 1° |
| 2026-05-04 22:46 | 36.12799 | -77.68807 | 36021 ft | 423 kts | 0° |
| 2026-05-04 22:47 | 36.18627 | -77.67771 | 35997 ft | 423 kts | 1° |
| 2026-05-04 22:47 | 36.24449 | -77.66740 | 35993 ft | 423 kts | 1° |
| 2026-05-04 22:48 | 36.30274 | -77.65705 | 35990 ft | 423 kts | 1° |
| 2026-05-04 22:48 | 36.36096 | -77.64671 | 36006 ft | 423 kts | 1° |
| 2026-05-04 22:49 | 36.41917 | -77.63634 | 35993 ft | 422 kts | 1° |
| 2026-05-04 22:49 | 36.47730 | -77.62592 | 35991 ft | 422 kts | 1° |
| 2026-05-04 22:50 | 36.53543 | -77.61599 | 35987 ft | 421 kts | 359° |
| 2026-05-04 22:50 | 36.59318 | -77.60709 | 36045 ft | 421 kts | 359° |
| 2026-05-04 22:51 | 36.65110 | -77.59801 | 36020 ft | 419 kts | 359° |
| 2026-05-04 22:51 | 36.70882 | -77.58887 | 36004 ft | 418 kts | 360° |
| 2026-05-04 22:52 | 36.76696 | -77.57968 | 36006 ft | 422 kts | 360° |
| 2026-05-04 22:52 | 36.82518 | -77.57039 | 36034 ft | 422 kts | 0° |
| 2026-05-04 22:53 | 36.88325 | -77.56114 | 35999 ft | 420 kts | 0° |
| 2026-05-04 22:53 | 36.94121 | -77.55192 | 35976 ft | 420 kts | 0° |
| 2026-05-04 22:54 | 36.99918 | -77.54268 | 35978 ft | 420 kts | 0° |
| 2026-05-04 22:54 | 37.05711 | -77.53341 | 36014 ft | 420 kts | 0° |